sensor_id;sensor_type;location;lat;lon;timestamp;P1;durP1;ratioP1;P2;durP2;ratioP2
34035;SDS011;63481;52.588;22.472;2024-03-08T00:02:45;6.30;;;4.30;;
34035;SDS011;63481;52.588;22.472;2024-03-08T00:07:47;5.40;;;4.40;;
34035;SDS011;63481;52.588;22.472;2024-03-08T00:12:50;6.60;;;4.20;;
34035;SDS011;63481;52.588;22.472;2024-03-08T00:22:55;4.70;;;3.20;;
34035;SDS011;63481;52.588;22.472;2024-03-08T00:27:59;3.70;;;2.90;;
34035;SDS011;63481;52.588;22.472;2024-03-08T00:33:01;7.90;;;3.90;;
34035;SDS011;63481;52.588;22.472;2024-03-08T00:38:03;7.70;;;4.40;;
34035;SDS011;63481;52.588;22.472;2024-03-08T00:43:05;7.70;;;4.10;;
34035;SDS011;63481;52.588;22.472;2024-03-08T00:48:08;6.80;;;4.40;;
34035;SDS011;63481;52.588;22.472;2024-03-08T00:53:10;7.90;;;4.40;;
34035;SDS011;63481;52.588;22.472;2024-03-08T00:58:13;6.10;;;4.00;;
34035;SDS011;63481;52.588;22.472;2024-03-08T01:03:15;8.00;;;3.00;;
34035;SDS011;63481;52.588;22.472;2024-03-08T01:08:16;6.00;;;4.30;;
34035;SDS011;63481;52.588;22.472;2024-03-08T01:13:18;9.40;;;3.90;;
34035;SDS011;63481;52.588;22.472;2024-03-08T01:18:20;4.80;;;2.80;;
34035;SDS011;63481;52.588;22.472;2024-03-08T01:23:22;7.20;;;4.50;;
34035;SDS011;63481;52.588;22.472;2024-03-08T01:28:24;5.50;;;3.70;;
34035;SDS011;63481;52.588;22.472;2024-03-08T01:33:28;5.10;;;4.20;;
34035;SDS011;63481;52.588;22.472;2024-03-08T01:38:29;6.00;;;3.20;;
34035;SDS011;63481;52.588;22.472;2024-03-08T01:43:31;8.20;;;5.00;;
34035;SDS011;63481;52.588;22.472;2024-03-08T01:48:33;4.00;;;2.70;;
34035;SDS011;63481;52.588;22.472;2024-03-08T01:53:36;5.90;;;3.50;;
34035;SDS011;63481;52.588;22.472;2024-03-08T01:58:38;5.50;;;2.90;;
34035;SDS011;63481;52.588;22.472;2024-03-08T02:03:41;5.20;;;3.10;;
34035;SDS011;63481;52.588;22.472;2024-03-08T02:08:45;6.50;;;3.90;;
34035;SDS011;63481;52.588;22.472;2024-03-08T02:13:48;5.20;;;3.10;;
34035;SDS011;63481;52.588;22.472;2024-03-08T02:18:50;4.40;;;3.60;;
34035;SDS011;63481;52.588;22.472;2024-03-08T02:23:51;6.20;;;4.00;;
34035;SDS011;63481;52.588;22.472;2024-03-08T02:28:53;6.90;;;4.30;;
34035;SDS011;63481;52.588;22.472;2024-03-08T02:33:55;7.30;;;4.40;;
34035;SDS011;63481;52.588;22.472;2024-03-08T02:38:58;15.50;;;4.40;;
34035;SDS011;63481;52.588;22.472;2024-03-08T02:44:00;4.70;;;2.90;;
34035;SDS011;63481;52.588;22.472;2024-03-08T02:49:02;6.60;;;3.80;;
34035;SDS011;63481;52.588;22.472;2024-03-08T02:54:04;3.10;;;2.20;;
34035;SDS011;63481;52.588;22.472;2024-03-08T02:59:05;3.40;;;2.30;;
34035;SDS011;63481;52.588;22.472;2024-03-08T03:04:07;7.50;;;4.00;;
34035;SDS011;63481;52.588;22.472;2024-03-08T03:09:09;4.30;;;3.40;;
34035;SDS011;63481;52.588;22.472;2024-03-08T03:14:11;6.40;;;3.80;;
34035;SDS011;63481;52.588;22.472;2024-03-08T03:19:13;5.50;;;3.50;;
34035;SDS011;63481;52.588;22.472;2024-03-08T03:24:16;3.80;;;2.80;;
34035;SDS011;63481;52.588;22.472;2024-03-08T03:29:19;10.00;;;3.90;;
34035;SDS011;63481;52.588;22.472;2024-03-08T03:34:21;5.60;;;3.20;;
34035;SDS011;63481;52.588;22.472;2024-03-08T03:39:24;5.10;;;3.30;;
34035;SDS011;63481;52.588;22.472;2024-03-08T03:44:26;4.70;;;3.50;;
34035;SDS011;63481;52.588;22.472;2024-03-08T03:49:27;4.10;;;2.50;;
34035;SDS011;63481;52.588;22.472;2024-03-08T03:54:30;8.80;;;3.40;;
34035;SDS011;63481;52.588;22.472;2024-03-08T03:59:32;4.80;;;3.10;;
34035;SDS011;63481;52.588;22.472;2024-03-08T04:04:34;5.80;;;3.10;;
34035;SDS011;63481;52.588;22.472;2024-03-08T04:09:35;2.50;;;2.30;;
34035;SDS011;63481;52.588;22.472;2024-03-08T04:14:41;4.70;;;3.00;;
34035;SDS011;63481;52.588;22.472;2024-03-08T04:19:44;3.40;;;3.10;;
34035;SDS011;63481;52.588;22.472;2024-03-08T04:24:46;7.80;;;4.10;;
34035;SDS011;63481;52.588;22.472;2024-03-08T04:29:47;6.90;;;3.50;;
34035;SDS011;63481;52.588;22.472;2024-03-08T04:34:49;9.80;;;4.30;;
34035;SDS011;63481;52.588;22.472;2024-03-08T04:39:51;4.40;;;2.90;;
34035;SDS011;63481;52.588;22.472;2024-03-08T04:44:53;5.80;;;2.70;;
34035;SDS011;63481;52.588;22.472;2024-03-08T04:49:55;6.90;;;4.20;;
34035;SDS011;63481;52.588;22.472;2024-03-08T04:54:57;4.00;;;3.60;;
34035;SDS011;63481;52.588;22.472;2024-03-08T04:59:59;5.10;;;3.20;;
34035;SDS011;63481;52.588;22.472;2024-03-08T05:05:01;4.10;;;3.10;;
34035;SDS011;63481;52.588;22.472;2024-03-08T05:10:02;4.00;;;3.00;;
34035;SDS011;63481;52.588;22.472;2024-03-08T05:15:05;6.70;;;3.80;;
34035;SDS011;63481;52.588;22.472;2024-03-08T05:20:09;6.50;;;3.40;;
34035;SDS011;63481;52.588;22.472;2024-03-08T05:25:13;3.50;;;2.90;;
34035;SDS011;63481;52.588;22.472;2024-03-08T05:30:15;7.80;;;3.70;;
34035;SDS011;63481;52.588;22.472;2024-03-08T05:35:17;6.80;;;4.30;;
34035;SDS011;63481;52.588;22.472;2024-03-08T05:40:19;7.20;;;3.80;;
34035;SDS011;63481;52.588;22.472;2024-03-08T05:45:20;10.10;;;3.60;;
34035;SDS011;63481;52.588;22.472;2024-03-08T05:50:22;5.50;;;3.40;;
34035;SDS011;63481;52.588;22.472;2024-03-08T05:55:24;8.70;;;4.70;;
34035;SDS011;63481;52.588;22.472;2024-03-08T06:00:26;8.40;;;3.70;;
34035;SDS011;63481;52.588;22.472;2024-03-08T06:05:28;13.50;;;5.80;;
34035;SDS011;63481;52.588;22.472;2024-03-08T06:10:29;7.60;;;5.00;;
34035;SDS011;63481;52.588;22.472;2024-03-08T06:15:31;14.70;;;5.50;;
34035;SDS011;63481;52.588;22.472;2024-03-08T06:20:33;11.80;;;6.20;;
34035;SDS011;63481;52.588;22.472;2024-03-08T06:25:35;11.40;;;6.40;;
34035;SDS011;63481;52.588;22.472;2024-03-08T06:30:36;16.10;;;6.90;;
34035;SDS011;63481;52.588;22.472;2024-03-08T06:35:38;14.60;;;6.00;;
34035;SDS011;63481;52.588;22.472;2024-03-08T06:40:40;8.90;;;4.90;;
34035;SDS011;63481;52.588;22.472;2024-03-08T06:45:42;13.30;;;6.60;;
34035;SDS011;63481;52.588;22.472;2024-03-08T06:50:49;13.80;;;6.80;;
34035;SDS011;63481;52.588;22.472;2024-03-08T06:55:52;18.90;;;9.60;;
34035;SDS011;63481;52.588;22.472;2024-03-08T07:00:54;18.00;;;8.40;;
34035;SDS011;63481;52.588;22.472;2024-03-08T07:05:59;18.00;;;8.70;;
34035;SDS011;63481;52.588;22.472;2024-03-08T07:11:04;19.20;;;7.30;;
34035;SDS011;63481;52.588;22.472;2024-03-08T07:16:06;17.80;;;8.40;;
34035;SDS011;63481;52.588;22.472;2024-03-08T07:21:09;19.00;;;6.80;;
34035;SDS011;63481;52.588;22.472;2024-03-08T07:26:17;14.50;;;7.90;;
34035;SDS011;63481;52.588;22.472;2024-03-08T07:31:20;24.80;;;8.70;;
34035;SDS011;63481;52.588;22.472;2024-03-08T07:36:39;15.80;;;9.10;;
34035;SDS011;63481;52.588;22.472;2024-03-08T07:41:41;16.90;;;8.20;;
34035;SDS011;63481;52.588;22.472;2024-03-08T07:46:43;16.80;;;8.70;;
34035;SDS011;63481;52.588;22.472;2024-03-08T07:51:45;17.60;;;8.00;;
34035;SDS011;63481;52.588;22.472;2024-03-08T07:56:46;14.00;;;7.10;;
34035;SDS011;63481;52.588;22.472;2024-03-08T08:01:48;17.90;;;8.50;;
34035;SDS011;63481;52.588;22.472;2024-03-08T08:06:50;25.30;;;7.70;;
34035;SDS011;63481;52.588;22.472;2024-03-08T08:11:52;14.50;;;6.60;;
34035;SDS011;63481;52.588;22.472;2024-03-08T08:16:54;19.10;;;8.90;;
34035;SDS011;63481;52.588;22.472;2024-03-08T08:21:57;17.10;;;6.90;;
34035;SDS011;63481;52.588;22.472;2024-03-08T08:26:59;13.80;;;7.40;;
34035;SDS011;63481;52.588;22.472;2024-03-08T08:32:02;19.30;;;7.70;;
34035;SDS011;63481;52.588;22.472;2024-03-08T08:37:05;15.30;;;7.80;;
34035;SDS011;63481;52.588;22.472;2024-03-08T08:42:08;14.70;;;5.00;;
34035;SDS011;63481;52.588;22.472;2024-03-08T08:47:10;14.30;;;6.40;;
34035;SDS011;63481;52.588;22.472;2024-03-08T08:52:12;11.10;;;5.20;;
34035;SDS011;63481;52.588;22.472;2024-03-08T08:57:14;12.60;;;6.00;;
34035;SDS011;63481;52.588;22.472;2024-03-08T09:02:16;11.30;;;4.70;;
34035;SDS011;63481;52.588;22.472;2024-03-08T09:07:18;9.90;;;3.50;;
34035;SDS011;63481;52.588;22.472;2024-03-08T09:12:20;9.80;;;3.70;;
34035;SDS011;63481;52.588;22.472;2024-03-08T09:17:22;4.70;;;3.00;;
34035;SDS011;63481;52.588;22.472;2024-03-08T09:22:23;4.50;;;2.40;;
34035;SDS011;63481;52.588;22.472;2024-03-08T09:27:25;5.00;;;2.60;;
34035;SDS011;63481;52.588;22.472;2024-03-08T09:32:27;6.20;;;3.20;;
34035;SDS011;63481;52.588;22.472;2024-03-08T09:37:29;10.40;;;4.60;;
34035;SDS011;63481;52.588;22.472;2024-03-08T09:42:30;8.80;;;3.60;;
34035;SDS011;63481;52.588;22.472;2024-03-08T09:47:33;13.40;;;4.60;;
34035;SDS011;63481;52.588;22.472;2024-03-08T09:52:36;7.80;;;3.30;;
34035;SDS011;63481;52.588;22.472;2024-03-08T09:57:39;13.10;;;3.40;;
34035;SDS011;63481;52.588;22.472;2024-03-08T10:02:41;14.30;;;5.30;;
34035;SDS011;63481;52.588;22.472;2024-03-08T10:07:43;7.80;;;3.10;;
34035;SDS011;63481;52.588;22.472;2024-03-08T10:12:46;7.60;;;3.20;;
34035;SDS011;63481;52.588;22.472;2024-03-08T10:17:47;10.40;;;3.10;;
34035;SDS011;63481;52.588;22.472;2024-03-08T10:22:50;5.80;;;2.10;;
34035;SDS011;63481;52.588;22.472;2024-03-08T10:27:52;8.70;;;3.10;;
34035;SDS011;63481;52.588;22.472;2024-03-08T10:32:54;6.50;;;3.10;;
34035;SDS011;63481;52.588;22.472;2024-03-08T10:37:56;7.00;;;3.00;;
34035;SDS011;63481;52.588;22.472;2024-03-08T10:43:01;7.90;;;3.20;;
34035;SDS011;63481;52.588;22.472;2024-03-08T10:53:37;5.70;;;3.10;;
34035;SDS011;63481;52.588;22.472;2024-03-08T10:58:42;6.70;;;3.20;;
34035;SDS011;63481;52.588;22.472;2024-03-08T11:03:46;6.80;;;3.00;;
34035;SDS011;63481;52.588;22.472;2024-03-08T11:08:51;6.90;;;3.30;;
34035;SDS011;63481;52.588;22.472;2024-03-08T11:13:56;5.60;;;2.50;;
34035;SDS011;63481;52.588;22.472;2024-03-08T11:41:26;8.30;;;3.50;;
34035;SDS011;63481;52.588;22.472;2024-03-08T11:46:28;7.20;;;3.30;;
34035;SDS011;63481;52.588;22.472;2024-03-08T11:51:30;5.60;;;2.50;;
34035;SDS011;63481;52.588;22.472;2024-03-08T11:56:33;5.30;;;2.40;;
34035;SDS011;63481;52.588;22.472;2024-03-08T12:01:35;18.40;;;3.70;;
34035;SDS011;63481;52.588;22.472;2024-03-08T12:06:40;6.50;;;2.80;;
34035;SDS011;63481;52.588;22.472;2024-03-08T12:11:42;6.40;;;2.40;;
34035;SDS011;63481;52.588;22.472;2024-03-08T12:16:44;4.50;;;2.70;;
34035;SDS011;63481;52.588;22.472;2024-03-08T12:21:46;3.00;;;2.10;;
34035;SDS011;63481;52.588;22.472;2024-03-08T12:26:51;4.40;;;2.50;;
34035;SDS011;63481;52.588;22.472;2024-03-08T12:31:57;6.90;;;2.80;;
34035;SDS011;63481;52.588;22.472;2024-03-08T12:37:02;7.20;;;2.60;;
34035;SDS011;63481;52.588;22.472;2024-03-08T12:42:04;4.50;;;2.50;;
34035;SDS011;63481;52.588;22.472;2024-03-08T12:47:06;4.10;;;2.40;;
34035;SDS011;63481;52.588;22.472;2024-03-08T12:52:09;7.10;;;2.50;;
34035;SDS011;63481;52.588;22.472;2024-03-08T12:57:11;5.60;;;2.10;;
34035;SDS011;63481;52.588;22.472;2024-03-08T13:02:14;4.30;;;2.20;;
34035;SDS011;63481;52.588;22.472;2024-03-08T13:07:18;4.70;;;2.30;;
34035;SDS011;63481;52.588;22.472;2024-03-08T13:12:20;5.40;;;2.10;;
34035;SDS011;63481;52.588;22.472;2024-03-08T13:17:22;3.80;;;2.10;;
34035;SDS011;63481;52.588;22.472;2024-03-08T13:22:24;4.40;;;2.60;;
34035;SDS011;63481;52.588;22.472;2024-03-08T13:27:29;6.60;;;2.40;;
34035;SDS011;63481;52.588;22.472;2024-03-08T13:32:31;4.10;;;2.20;;
34035;SDS011;63481;52.588;22.472;2024-03-08T13:37:33;4.00;;;2.00;;
34035;SDS011;63481;52.588;22.472;2024-03-08T13:42:35;3.80;;;2.10;;
34035;SDS011;63481;52.588;22.472;2024-03-08T13:47:37;10.80;;;2.40;;
34035;SDS011;63481;52.588;22.472;2024-03-08T13:52:42;5.00;;;2.50;;
34035;SDS011;63481;52.588;22.472;2024-03-08T13:57:47;5.30;;;2.60;;
34035;SDS011;63481;52.588;22.472;2024-03-08T14:02:49;6.80;;;2.70;;
34035;SDS011;63481;52.588;22.472;2024-03-08T14:07:51;7.60;;;2.90;;
34035;SDS011;63481;52.588;22.472;2024-03-08T14:12:55;5.50;;;2.60;;
34035;SDS011;63481;52.588;22.472;2024-03-08T14:17:57;7.80;;;2.70;;
34035;SDS011;63481;52.588;22.472;2024-03-08T14:22:59;5.50;;;2.50;;
34035;SDS011;63481;52.588;22.472;2024-03-08T14:28:00;5.70;;;2.50;;
34035;SDS011;63481;52.588;22.472;2024-03-08T14:33:08;8.70;;;2.40;;
34035;SDS011;63481;52.588;22.472;2024-03-08T14:38:10;7.90;;;3.10;;
34035;SDS011;63481;52.588;22.472;2024-03-08T14:43:13;7.70;;;3.20;;
34035;SDS011;63481;52.588;22.472;2024-03-08T15:00:06;5.90;;;3.30;;
34035;SDS011;63481;52.588;22.472;2024-03-08T15:05:17;7.50;;;3.70;;
34035;SDS011;63481;52.588;22.472;2024-03-08T15:10:22;16.60;;;4.10;;
34035;SDS011;63481;52.588;22.472;2024-03-08T15:15:27;5.30;;;2.40;;
34035;SDS011;63481;52.588;22.472;2024-03-08T15:20:31;5.60;;;2.50;;
34035;SDS011;63481;52.588;22.472;2024-03-08T15:25:36;12.50;;;4.90;;
34035;SDS011;63481;52.588;22.472;2024-03-08T15:35:46;9.20;;;3.90;;
34035;SDS011;63481;52.588;22.472;2024-03-08T15:40:51;13.50;;;5.60;;
34035;SDS011;63481;52.588;22.472;2024-03-08T15:45:53;14.20;;;6.70;;
34035;SDS011;63481;52.588;22.472;2024-03-08T15:50:56;9.80;;;4.40;;
34035;SDS011;63481;52.588;22.472;2024-03-08T15:55:58;10.30;;;4.00;;
34035;SDS011;63481;52.588;22.472;2024-03-08T16:01:00;5.20;;;2.70;;
34035;SDS011;63481;52.588;22.472;2024-03-08T16:06:02;3.90;;;2.10;;
34035;SDS011;63481;52.588;22.472;2024-03-08T16:11:06;6.40;;;2.70;;
34035;SDS011;63481;52.588;22.472;2024-03-08T16:16:07;8.80;;;3.40;;
34035;SDS011;63481;52.588;22.472;2024-03-08T16:21:10;4.90;;;2.80;;
34035;SDS011;63481;52.588;22.472;2024-03-08T16:26:13;10.30;;;3.90;;
34035;SDS011;63481;52.588;22.472;2024-03-08T16:31:15;6.70;;;2.90;;
34035;SDS011;63481;52.588;22.472;2024-03-08T16:36:17;9.20;;;4.00;;
34035;SDS011;63481;52.588;22.472;2024-03-08T16:41:19;6.80;;;4.00;;
34035;SDS011;63481;52.588;22.472;2024-03-08T16:46:22;9.20;;;3.70;;
34035;SDS011;63481;52.588;22.472;2024-03-08T16:51:24;5.20;;;3.00;;
34035;SDS011;63481;52.588;22.472;2024-03-08T16:56:26;6.70;;;3.10;;
34035;SDS011;63481;52.588;22.472;2024-03-08T17:01:28;6.40;;;3.40;;
34035;SDS011;63481;52.588;22.472;2024-03-08T17:06:30;21.30;;;6.00;;
34035;SDS011;63481;52.588;22.472;2024-03-08T17:11:32;16.20;;;5.80;;
34035;SDS011;63481;52.588;22.472;2024-03-08T17:16:34;10.30;;;3.40;;
34035;SDS011;63481;52.588;22.472;2024-03-08T17:26:40;14.40;;;3.70;;
34035;SDS011;63481;52.588;22.472;2024-03-08T17:31:42;9.70;;;3.80;;
34035;SDS011;63481;52.588;22.472;2024-03-08T17:36:46;12.00;;;4.90;;
34035;SDS011;63481;52.588;22.472;2024-03-08T17:41:48;4.50;;;2.80;;
34035;SDS011;63481;52.588;22.472;2024-03-08T17:46:50;17.50;;;3.70;;
34035;SDS011;63481;52.588;22.472;2024-03-08T17:51:52;7.10;;;4.00;;
34035;SDS011;63481;52.588;22.472;2024-03-08T17:56:54;9.30;;;3.80;;
34035;SDS011;63481;52.588;22.472;2024-03-08T18:01:56;6.50;;;3.00;;
34035;SDS011;63481;52.588;22.472;2024-03-08T18:06:59;9.40;;;3.60;;
34035;SDS011;63481;52.588;22.472;2024-03-08T18:12:00;6.00;;;2.80;;
34035;SDS011;63481;52.588;22.472;2024-03-08T18:17:03;14.60;;;3.40;;
34035;SDS011;63481;52.588;22.472;2024-03-08T18:22:07;7.60;;;4.30;;
34035;SDS011;63481;52.588;22.472;2024-03-08T18:27:10;12.60;;;5.50;;
34035;SDS011;63481;52.588;22.472;2024-03-08T18:32:11;15.30;;;6.20;;
34035;SDS011;63481;52.588;22.472;2024-03-08T18:37:13;11.10;;;5.00;;
34035;SDS011;63481;52.588;22.472;2024-03-08T18:42:15;6.00;;;3.30;;
34035;SDS011;63481;52.588;22.472;2024-03-08T18:47:17;11.30;;;3.90;;
34035;SDS011;63481;52.588;22.472;2024-03-08T18:52:19;10.30;;;3.90;;
34035;SDS011;63481;52.588;22.472;2024-03-08T18:57:21;7.10;;;3.50;;
34035;SDS011;63481;52.588;22.472;2024-03-08T19:02:23;12.10;;;4.40;;
34035;SDS011;63481;52.588;22.472;2024-03-08T19:07:25;10.20;;;5.10;;
34035;SDS011;63481;52.588;22.472;2024-03-08T19:12:30;13.70;;;5.90;;
34035;SDS011;63481;52.588;22.472;2024-03-08T19:17:35;29.00;;;6.50;;
34035;SDS011;63481;52.588;22.472;2024-03-08T19:22:38;15.10;;;6.50;;
34035;SDS011;63481;52.588;22.472;2024-03-08T19:27:41;21.00;;;9.10;;
34035;SDS011;63481;52.588;22.472;2024-03-08T19:32:44;14.40;;;6.70;;
34035;SDS011;63481;52.588;22.472;2024-03-08T19:37:46;9.00;;;5.00;;
34035;SDS011;63481;52.588;22.472;2024-03-08T19:42:52;7.50;;;3.30;;
34035;SDS011;63481;52.588;22.472;2024-03-08T19:47:57;11.60;;;4.00;;
34035;SDS011;63481;52.588;22.472;2024-03-08T19:53:02;11.90;;;4.30;;
34035;SDS011;63481;52.588;22.472;2024-03-08T19:58:08;9.40;;;5.70;;
34035;SDS011;63481;52.588;22.472;2024-03-08T20:03:30;12.20;;;4.20;;
34035;SDS011;63481;52.588;22.472;2024-03-08T20:08:33;16.50;;;6.00;;
34035;SDS011;63481;52.588;22.472;2024-03-08T20:13:35;14.10;;;6.10;;
34035;SDS011;63481;52.588;22.472;2024-03-08T20:18:37;9.20;;;4.90;;
34035;SDS011;63481;52.588;22.472;2024-03-08T20:23:57;10.30;;;4.40;;
34035;SDS011;63481;52.588;22.472;2024-03-08T20:29:16;10.80;;;4.40;;
34035;SDS011;63481;52.588;22.472;2024-03-08T20:34:35;5.00;;;3.10;;
34035;SDS011;63481;52.588;22.472;2024-03-08T20:39:38;6.50;;;2.90;;
34035;SDS011;63481;52.588;22.472;2024-03-08T20:44:39;14.30;;;3.70;;
34035;SDS011;63481;52.588;22.472;2024-03-08T20:49:41;5.40;;;3.20;;
34035;SDS011;63481;52.588;22.472;2024-03-08T20:54:45;5.80;;;2.80;;
34035;SDS011;63481;52.588;22.472;2024-03-08T20:59:48;5.90;;;2.70;;
34035;SDS011;63481;52.588;22.472;2024-03-08T21:04:50;5.10;;;2.80;;
34035;SDS011;63481;52.588;22.472;2024-03-08T21:09:53;4.00;;;2.60;;
34035;SDS011;63481;52.588;22.472;2024-03-08T21:14:56;4.50;;;2.70;;
34035;SDS011;63481;52.588;22.472;2024-03-08T21:19:58;9.30;;;3.50;;
34035;SDS011;63481;52.588;22.472;2024-03-08T21:24:59;9.40;;;3.40;;
34035;SDS011;63481;52.588;22.472;2024-03-08T21:30:01;4.50;;;3.10;;
34035;SDS011;63481;52.588;22.472;2024-03-08T21:35:03;7.10;;;3.60;;
34035;SDS011;63481;52.588;22.472;2024-03-08T21:40:05;3.70;;;2.30;;
34035;SDS011;63481;52.588;22.472;2024-03-08T21:45:11;5.80;;;3.20;;
34035;SDS011;63481;52.588;22.472;2024-03-08T21:50:13;7.80;;;3.30;;
34035;SDS011;63481;52.588;22.472;2024-03-08T21:55:18;8.40;;;3.10;;
34035;SDS011;63481;52.588;22.472;2024-03-08T22:00:20;5.80;;;3.60;;
34035;SDS011;63481;52.588;22.472;2024-03-08T22:05:24;6.80;;;4.00;;
34035;SDS011;63481;52.588;22.472;2024-03-08T22:10:26;8.60;;;3.90;;
34035;SDS011;63481;52.588;22.472;2024-03-08T22:15:30;38.20;;;15.60;;
34035;SDS011;63481;52.588;22.472;2024-03-08T22:20:32;17.10;;;9.00;;
34035;SDS011;63481;52.588;22.472;2024-03-08T22:25:34;9.60;;;4.80;;
34035;SDS011;63481;52.588;22.472;2024-03-08T22:30:36;7.70;;;4.10;;
34035;SDS011;63481;52.588;22.472;2024-03-08T22:35:38;4.50;;;3.60;;
34035;SDS011;63481;52.588;22.472;2024-03-08T22:40:40;9.80;;;4.30;;
34035;SDS011;63481;52.588;22.472;2024-03-08T22:45:42;12.40;;;4.80;;
34035;SDS011;63481;52.588;22.472;2024-03-08T22:50:44;10.30;;;3.10;;
34035;SDS011;63481;52.588;22.472;2024-03-08T22:55:46;9.10;;;4.50;;
34035;SDS011;63481;52.588;22.472;2024-03-08T23:00:48;9.20;;;4.40;;
34035;SDS011;63481;52.588;22.472;2024-03-08T23:05:58;10.90;;;5.10;;
34035;SDS011;63481;52.588;22.472;2024-03-08T23:11:00;6.10;;;3.10;;
34035;SDS011;63481;52.588;22.472;2024-03-08T23:16:03;5.10;;;3.30;;
34035;SDS011;63481;52.588;22.472;2024-03-08T23:21:09;7.60;;;3.50;;
34035;SDS011;63481;52.588;22.472;2024-03-08T23:26:10;8.30;;;4.10;;
34035;SDS011;63481;52.588;22.472;2024-03-08T23:31:13;7.90;;;4.50;;
34035;SDS011;63481;52.588;22.472;2024-03-08T23:36:15;9.40;;;4.30;;
34035;SDS011;63481;52.588;22.472;2024-03-08T23:41:17;9.50;;;5.20;;
34035;SDS011;63481;52.588;22.472;2024-03-08T23:46:19;5.10;;;3.10;;
34035;SDS011;63481;52.588;22.472;2024-03-08T23:51:25;6.60;;;3.70;;
34035;SDS011;63481;52.588;22.472;2024-03-08T23:56:26;9.10;;;4.00;;
